createdAt,value
2023-04-25T00:00:49.304Z,990.1
2023-04-25T00:01:50.451Z,990.1
2023-04-25T00:02:51.997Z,990.1
2023-04-25T00:03:54.435Z,990.1
2023-04-25T00:04:57.329Z,990.1
2023-04-25T00:05:59.029Z,990.1
2023-04-25T00:07:00.249Z,990.1
2023-04-25T00:08:01.419Z,990.1
2023-04-25T00:09:02.631Z,990.1
2023-04-25T00:10:03.810Z,990.1
2023-04-25T00:11:04.967Z,990.2
2023-04-25T00:12:06.122Z,990.2
2023-04-25T00:13:07.304Z,990.2
2023-04-25T00:14:08.479Z,990.2
2023-04-25T00:15:09.647Z,990.2
2023-04-25T00:16:10.948Z,990.2
2023-04-25T00:17:12.086Z,990.2
2023-04-25T00:18:13.255Z,990.1
2023-04-25T00:19:14.419Z,990.1
2023-04-25T00:20:15.588Z,990.1
2023-04-25T00:21:16.748Z,990.1
2023-04-25T00:22:17.916Z,990.1
2023-04-25T00:23:19.079Z,990.1
2023-04-25T00:24:20.252Z,990.1
2023-04-25T00:25:21.412Z,990.1
2023-04-25T00:26:22.595Z,990.1
2023-04-25T00:27:23.752Z,990.1
2023-04-25T00:28:24.911Z,990.1
2023-04-25T00:29:26.076Z,990.1
2023-04-25T00:30:27.242Z,990
2023-04-25T00:31:28.472Z,990
2023-04-25T00:32:29.762Z,990
2023-04-25T00:33:30.920Z,990
2023-04-25T00:34:32.091Z,990.1
2023-04-25T00:35:33.247Z,990.1
2023-04-25T00:36:34.452Z,990.1
2023-04-25T00:37:35.594Z,990.1
2023-04-25T00:38:36.778Z,990.1
2023-04-25T00:39:37.925Z,990.1
2023-04-25T00:40:39.088Z,990.1
2023-04-25T00:41:40.253Z,990.1
2023-04-25T00:42:41.422Z,990.1
2023-04-25T00:43:42.601Z,990.1
2023-04-25T00:44:43.765Z,990.1
2023-04-25T00:45:44.940Z,990.1
2023-04-25T00:46:46.222Z,990.1
2023-04-25T00:47:47.485Z,990.1
2023-04-25T00:48:48.648Z,990.1
2023-04-25T00:49:49.813Z,990.1
2023-04-25T00:50:50.972Z,990.1
2023-04-25T00:51:52.137Z,990.1
2023-04-25T00:52:53.305Z,990.2
2023-04-25T00:53:54.540Z,990.2
2023-04-25T00:54:55.698Z,990.2
2023-04-25T00:55:56.893Z,990.2
2023-04-25T00:56:58.040Z,990.2
2023-04-25T00:57:59.202Z,990.2
2023-04-25T00:59:00.370Z,990.2
2023-04-25T01:00:01.536Z,990.2
2023-04-25T01:01:02.808Z,990.2
2023-04-25T01:02:04.119Z,990.2
2023-04-25T01:03:05.626Z,990.1
2023-04-25T01:04:07.472Z,990.1
2023-04-25T01:05:08.860Z,990.1
2023-04-25T01:06:10.055Z,990.1
2023-04-25T01:07:11.197Z,990.1
2023-04-25T01:08:12.353Z,990.1
2023-04-25T01:09:13.523Z,990.1
2023-04-25T01:10:14.682Z,990.1
2023-04-25T01:11:15.845Z,990.1
2023-04-25T01:12:17.014Z,990.1
2023-04-25T01:13:18.176Z,990.1
2023-04-25T01:14:19.341Z,990.1
2023-04-25T01:15:20.511Z,990.1
2023-04-25T01:16:21.790Z,990.2
2023-04-25T01:17:22.987Z,990.1
2023-04-25T01:18:24.148Z,990.2
2023-04-25T01:19:25.295Z,990.2
2023-04-25T01:20:26.537Z,990.1
2023-04-25T01:21:27.692Z,990.2
2023-04-25T01:22:28.859Z,990.2
2023-04-25T01:23:30.056Z,990.1
2023-04-25T01:24:31.231Z,990.1
2023-04-25T01:25:32.407Z,990.1
2023-04-25T01:26:33.559Z,990.1
2023-04-25T01:27:34.724Z,990.1
2023-04-25T01:28:35.887Z,990.1
2023-04-25T01:29:37.064Z,990.1
2023-04-25T01:30:38.286Z,990.1
2023-04-25T01:31:39.552Z,990.1
2023-04-25T01:32:40.770Z,990.1
2023-04-25T01:33:41.958Z,990.1
2023-04-25T01:34:43.115Z,990.1
2023-04-25T01:35:44.323Z,990.1
2023-04-25T01:36:45.452Z,990.2
2023-04-25T01:37:46.613Z,990.2
2023-04-25T01:38:47.784Z,990.2
2023-04-25T01:39:48.942Z,990.2
2023-04-25T01:40:50.153Z,990.2
2023-04-25T01:41:51.322Z,990.2
2023-04-25T01:42:52.516Z,990.2
2023-04-25T01:43:53.978Z,990.2
2023-04-25T01:44:55.144Z,990.2
2023-04-25T01:45:56.333Z,990.2
2023-04-25T01:46:57.492Z,990.2
2023-04-25T01:47:58.708Z,990.2
2023-04-25T01:48:59.940Z,990.2
2023-04-25T01:50:01.098Z,990.2
2023-04-25T01:51:02.272Z,990.2
2023-04-25T01:52:03.430Z,990.2
2023-04-25T01:53:04.621Z,990.2
2023-04-25T01:54:05.764Z,990.2
2023-04-25T01:55:06.971Z,990.2
2023-04-25T01:56:08.138Z,990.2
2023-04-25T01:57:09.303Z,990.2
2023-04-25T01:58:10.466Z,990.2
2023-04-25T01:59:11.816Z,990.2
2023-04-25T02:00:12.972Z,990.2
2023-04-25T02:01:14.286Z,990.2
2023-04-25T02:02:15.561Z,990.2
2023-04-25T02:03:17.080Z,990.3
2023-04-25T02:04:19.041Z,990.3
2023-04-25T02:05:20.789Z,990.2
2023-04-25T02:06:21.982Z,990.3
2023-04-25T02:07:23.122Z,990.3
2023-04-25T02:08:24.288Z,990.2
2023-04-25T02:09:25.452Z,990.2
2023-04-25T02:10:26.616Z,990.2
2023-04-25T02:11:27.780Z,990.2
2023-04-25T02:12:28.944Z,990.2
2023-04-25T02:13:30.107Z,990.2
2023-04-25T02:14:31.276Z,990.3
2023-04-25T02:15:32.522Z,990.2
2023-04-25T02:16:33.804Z,990.2
2023-04-25T02:17:35.244Z,990.3
2023-04-25T02:18:36.445Z,990.3
2023-04-25T02:19:37.627Z,990.2
2023-04-25T02:20:38.794Z,990.3
2023-04-25T02:21:39.954Z,990.3
2023-04-25T02:22:41.119Z,990.3
2023-04-25T02:23:42.294Z,990.3
2023-04-25T02:24:43.484Z,990.3
2023-04-25T02:25:44.655Z,990.3
2023-04-25T02:26:45.817Z,990.3
2023-04-25T02:27:46.985Z,990.3
2023-04-25T02:28:48.146Z,990.3
2023-04-25T02:29:49.326Z,990.3
2023-04-25T02:30:50.491Z,990.3
2023-04-25T02:31:51.909Z,990.3
2023-04-25T02:32:53.260Z,990.3
2023-04-25T02:33:54.461Z,990.3
2023-04-25T02:34:55.625Z,990.3
2023-04-25T02:35:56.790Z,990.3
2023-04-25T02:36:58.002Z,990.3
2023-04-25T02:37:59.172Z,990.3
2023-04-25T02:39:00.331Z,990.3
2023-04-25T02:40:01.525Z,990.3
2023-04-25T02:41:02.660Z,990.3
2023-04-25T02:42:03.845Z,990.3
2023-04-25T02:43:04.996Z,990.3
2023-04-25T02:44:06.154Z,990.3
2023-04-25T02:45:07.327Z,990.3
2023-04-25T02:46:08.533Z,990.3
2023-04-25T02:47:09.800Z,990.3
2023-04-25T02:48:11.020Z,990.3
2023-04-25T02:49:12.211Z,990.3
2023-04-25T02:50:13.344Z,990.3
2023-04-25T02:51:14.510Z,990.3
2023-04-25T02:52:15.672Z,990.3
2023-04-25T02:53:16.837Z,990.3
2023-04-25T02:54:18.011Z,990.3
2023-04-25T02:55:19.166Z,990.3
2023-04-25T02:56:20.333Z,990.3
2023-04-25T02:57:21.504Z,990.3
2023-04-25T02:58:22.679Z,990.3
2023-04-25T02:59:23.829Z,990.3
2023-04-25T03:00:24.991Z,990.3
2023-04-25T03:01:26.272Z,990.3
2023-04-25T03:02:27.527Z,990.3
2023-04-25T03:03:28.965Z,990.3
2023-04-25T03:04:30.357Z,990.3
2023-04-25T03:05:31.545Z,990.3
2023-04-25T03:06:32.705Z,990.2
2023-04-25T03:07:33.875Z,990.2
2023-04-25T03:08:35.034Z,990.2
2023-04-25T03:09:36.203Z,990.2
2023-04-25T03:10:37.378Z,990.2
2023-04-25T03:11:38.532Z,990.2
2023-04-25T03:12:39.700Z,990.2
2023-04-25T03:13:40.862Z,990.2
2023-04-25T03:14:42.026Z,990.2
2023-04-25T03:15:43.192Z,990.2
2023-04-25T03:16:44.359Z,990.2
2023-04-25T03:17:45.605Z,990.1
2023-04-25T03:18:46.818Z,990.2
2023-04-25T03:19:48.010Z,990.2
2023-04-25T03:20:49.162Z,990.2
2023-04-25T03:21:50.328Z,990.2
2023-04-25T03:22:51.485Z,990.2
2023-04-25T03:23:53.026Z,990.2
2023-04-25T03:24:54.264Z,990.2
2023-04-25T03:25:55.426Z,990.2
2023-04-25T03:26:56.598Z,990.2
2023-04-25T03:27:57.759Z,990.2
2023-04-25T03:28:58.919Z,990.2
2023-04-25T03:30:00.118Z,990.2
2023-04-25T03:31:01.276Z,990.2
2023-04-25T03:32:02.559Z,990.2
2023-04-25T03:33:03.972Z,990.2
2023-04-25T03:34:05.170Z,990.2
2023-04-25T03:35:06.379Z,990.3
2023-04-25T03:36:07.565Z,990.3
2023-04-25T03:37:08.732Z,990.3
2023-04-25T03:38:09.892Z,990.3
2023-04-25T03:39:11.057Z,990.3
2023-04-25T03:40:12.216Z,990.3
2023-04-25T03:41:13.388Z,990.3
2023-04-25T03:42:14.551Z,990.3
2023-04-25T03:43:16.224Z,990.3
2023-04-25T03:44:18.388Z,990.3
2023-04-25T03:45:19.553Z,990.3
2023-04-25T03:46:20.762Z,990.3
2023-04-25T03:47:21.997Z,990.2
2023-04-25T03:48:23.244Z,990.3
2023-04-25T03:49:24.385Z,990.3
2023-04-25T03:50:25.580Z,990.2
2023-04-25T03:51:26.780Z,990.2
2023-04-25T03:52:27.914Z,990.2
2023-04-25T03:53:29.073Z,990.3
2023-04-25T03:54:30.240Z,990.3
2023-04-25T03:55:31.406Z,990.3
2023-04-25T03:56:32.572Z,990.3
2023-04-25T03:57:33.731Z,990.3
2023-04-25T03:58:34.902Z,990.3
2023-04-25T03:59:36.066Z,990.3
2023-04-25T04:00:37.236Z,990.3
2023-04-25T04:01:38.392Z,990.3
2023-04-25T04:02:39.892Z,990.3
2023-04-25T04:03:45.249Z,990.3
2023-04-25T04:04:47.452Z,990.4
2023-04-25T04:05:49.700Z,990.4
2023-04-25T04:06:51.114Z,990.4
2023-04-25T04:07:52.281Z,990.4
2023-04-25T04:08:53.441Z,990.4
2023-04-25T04:09:54.605Z,990.4
2023-04-25T04:10:55.771Z,990.4
2023-04-25T04:11:56.941Z,990.4
2023-04-25T04:12:58.103Z,990.4
2023-04-25T04:13:59.267Z,990.4
2023-04-25T04:15:00.484Z,990.5
2023-04-25T04:16:01.686Z,990.5
2023-04-25T04:17:02.908Z,990.5
2023-04-25T04:18:04.462Z,990.5
2023-04-25T04:19:05.605Z,990.5
2023-04-25T04:20:06.773Z,990.5
2023-04-25T04:21:07.974Z,990.5
2023-04-25T04:22:09.110Z,990.5
2023-04-25T04:23:10.276Z,990.5
2023-04-25T04:24:11.483Z,990.5
2023-04-25T04:25:12.631Z,990.6
2023-04-25T04:26:13.783Z,990.6
2023-04-25T04:27:14.957Z,990.6
2023-04-25T04:28:16.112Z,990.7
2023-04-25T04:29:17.284Z,990.7
2023-04-25T04:30:18.452Z,990.6
2023-04-25T04:31:19.744Z,990.7
2023-04-25T04:32:20.937Z,990.7
2023-04-25T04:33:22.222Z,990.6
2023-04-25T04:34:23.388Z,990.7
2023-04-25T04:35:24.585Z,990.7
2023-04-25T04:36:25.767Z,990.7
2023-04-25T04:37:26.913Z,990.7
2023-04-25T04:38:28.075Z,990.7
2023-04-25T04:39:29.241Z,990.7
2023-04-25T04:40:30.407Z,990.7
2023-04-25T04:41:31.576Z,990.7
2023-04-25T04:42:32.734Z,990.7
2023-04-25T04:43:33.893Z,990.7
2023-04-25T04:44:35.068Z,990.8
2023-04-25T04:45:36.229Z,990.8
2023-04-25T04:46:37.430Z,990.8
2023-04-25T04:47:38.735Z,990.8
2023-04-25T04:48:39.940Z,990.8
2023-04-25T04:49:41.117Z,990.8
2023-04-25T04:50:42.266Z,990.8
2023-04-25T04:51:43.455Z,990.8
2023-04-25T04:52:44.652Z,990.8
2023-04-25T04:53:45.780Z,990.8
2023-04-25T04:54:46.946Z,990.9
2023-04-25T04:55:48.117Z,990.9
2023-04-25T04:56:49.288Z,990.9
2023-04-25T04:57:50.472Z,990.9
2023-04-25T04:58:51.677Z,990.9
2023-04-25T04:59:52.806Z,990.9
2023-04-25T05:00:54.045Z,990.9
2023-04-25T05:01:55.213Z,991
2023-04-25T05:02:56.621Z,991
2023-04-25T05:03:59.116Z,991
2023-04-25T05:05:00.749Z,991
2023-04-25T05:06:01.904Z,991
2023-04-25T05:07:03.085Z,991.1
2023-04-25T05:08:04.234Z,991.1
2023-04-25T05:09:05.449Z,991.1
2023-04-25T05:10:06.676Z,991.1
2023-04-25T05:11:07.831Z,991.1
2023-04-25T05:12:09.017Z,991.2
2023-04-25T05:13:10.159Z,991.2
2023-04-25T05:14:11.337Z,991.2
2023-04-25T05:15:14.840Z,991.2
2023-04-25T05:16:16.046Z,991.3
2023-04-25T05:17:17.270Z,991.3
2023-04-25T05:18:18.433Z,991.3
2023-04-25T05:19:19.597Z,991.4
2023-04-25T05:20:20.759Z,991.4
2023-04-25T05:21:22.336Z,991.4
2023-04-25T05:22:23.727Z,991.4
2023-04-25T05:23:24.861Z,991.4
2023-04-25T05:24:26.018Z,991.4
2023-04-25T05:25:27.188Z,991.5
2023-04-25T05:26:28.352Z,991.5
2023-04-25T05:27:32.324Z,991.5
2023-04-25T05:28:33.457Z,991.5
2023-04-25T05:29:34.621Z,991.5
2023-04-25T05:30:35.789Z,991.5
2023-04-25T05:31:37.003Z,991.5
2023-04-25T05:32:38.203Z,991.5
2023-04-25T05:33:39.403Z,991.5
2023-04-25T05:34:40.563Z,991.5
2023-04-25T05:35:41.732Z,991.5
2023-04-25T05:36:42.894Z,991.6
2023-04-25T05:37:44.129Z,991.6
2023-04-25T05:38:45.264Z,991.6
2023-04-25T05:39:46.417Z,991.6
2023-04-25T05:40:47.581Z,991.6
2023-04-25T05:41:48.749Z,991.7
2023-04-25T05:42:49.918Z,991.7
2023-04-25T05:43:52.296Z,991.7
2023-04-25T05:44:57.862Z,991.7
2023-04-25T05:45:59.041Z,991.7
2023-04-25T05:47:00.257Z,991.7
2023-04-25T05:48:01.506Z,991.7
2023-04-25T05:49:02.715Z,991.7
2023-04-25T05:50:03.881Z,991.7
2023-04-25T05:51:05.046Z,991.7
2023-04-25T05:52:06.212Z,991.7
2023-04-25T05:53:07.399Z,991.7
2023-04-25T05:54:08.546Z,991.7
2023-04-25T05:55:09.709Z,991.7
2023-04-25T05:56:10.889Z,991.8
2023-04-25T05:57:12.039Z,991.8
2023-04-25T05:58:13.205Z,991.8
2023-04-25T05:59:14.367Z,991.8
2023-04-25T06:00:15.579Z,991.8
2023-04-25T06:02:31.047Z,991.9
2023-04-25T06:03:37.628Z,991.9
2023-04-25T06:04:41.444Z,991.9
2023-04-25T06:05:51.759Z,991.9
2023-04-25T06:08:15.583Z,991.9
2023-04-25T06:09:16.745Z,991.9
2023-04-25T06:10:24.134Z,991.9
2023-04-25T06:11:28.179Z,991.9
2023-04-25T06:12:29.411Z,991.9
2023-04-25T06:13:40.295Z,991.9
2023-04-25T06:14:46.549Z,991.9
2023-04-25T06:15:48.805Z,991.9
2023-04-25T06:16:56.118Z,991.9
2023-04-25T06:17:57.596Z,992
2023-04-25T06:18:58.784Z,992
2023-04-25T06:20:03.634Z,992
2023-04-25T06:21:09.101Z,992
2023-04-25T06:22:10.260Z,992.1
2023-04-25T06:23:11.566Z,992.1
2023-04-25T06:24:14.259Z,992.1
2023-04-25T06:25:17.465Z,992.1
2023-04-25T06:26:18.648Z,992.1
2023-04-25T06:27:30.219Z,992.1
2023-04-25T06:28:51.393Z,992.1
2023-04-25T06:29:55.891Z,992
2023-04-25T06:30:57.063Z,992
2023-04-25T06:32:24.941Z,992
2023-04-25T06:33:35.210Z,992.1
2023-04-25T06:34:45.113Z,992.1
2023-04-25T06:35:51.931Z,992.1
2023-04-25T06:36:56.258Z,992.1
2023-04-25T06:37:57.392Z,992.1
2023-04-25T06:39:01.130Z,992.1
2023-04-25T06:40:05.497Z,992.1
2023-04-25T06:41:12.348Z,992.1
2023-04-25T06:42:13.490Z,992.1
2023-04-25T06:43:14.833Z,992
2023-04-25T06:44:18.731Z,992.1
2023-04-25T06:45:28.460Z,992.1
2023-04-25T06:46:32.531Z,992.1
2023-04-25T06:47:42.042Z,992.1
2023-04-25T06:48:48.105Z,992.1
2023-04-25T06:51:24.154Z,992.1
2023-04-25T06:52:25.580Z,992.1
2023-04-25T06:53:29.043Z,992.1
2023-04-25T07:00:29.358Z,992.1
2023-04-25T07:01:33.695Z,992.1
2023-04-25T07:02:37.547Z,992.1
2023-04-25T07:03:42.261Z,992.1
2023-04-25T07:04:46.583Z,992.2
2023-04-25T07:05:54.043Z,992.2
2023-04-25T07:06:55.378Z,992.2
2023-04-25T07:07:56.556Z,992.2
2023-04-25T07:09:03.645Z,992.2
2023-04-25T07:10:18.762Z,992.2
2023-04-25T07:11:22.991Z,992.2
2023-04-25T07:12:35.897Z,992.2
2023-04-25T07:13:39.880Z,992.2
2023-04-25T07:14:41.059Z,992.2
2023-04-25T07:16:03.209Z,992.2
2023-04-25T07:17:07.117Z,992.2
2023-04-25T07:18:14.140Z,992.2
2023-04-25T07:21:59.826Z,992.2
2023-04-25T07:23:06.044Z,992.2
2023-04-25T07:24:07.272Z,992.2
2023-04-25T07:25:13.476Z,992.2
2023-04-25T07:26:17.605Z,992.2
2023-04-25T07:27:18.788Z,992.1
2023-04-25T07:28:22.985Z,992.2
2023-04-25T07:29:52.369Z,992.2
2023-04-25T07:30:59.345Z,992.2
2023-04-25T07:32:03.521Z,992.2
2023-04-25T07:33:08.163Z,992.2
2023-04-25T07:34:12.181Z,992.2
2023-04-25T07:35:18.509Z,992.2
2023-04-25T07:36:19.803Z,992.2
2023-04-25T07:39:58.589Z,992.3
2023-04-25T07:41:02.532Z,992.3
2023-04-25T07:42:11.097Z,992.3
2023-04-25T07:45:08.617Z,992.3
2023-04-25T07:46:18.710Z,992.4
2023-04-25T07:47:30.765Z,992.4
2023-04-25T07:48:40.706Z,992.4
2023-04-25T07:49:54.941Z,992.4
2023-04-25T07:51:04.350Z,992.4
2023-04-25T07:52:08.274Z,992.4
2023-04-25T07:53:18.285Z,992.5
2023-04-25T07:54:24.564Z,992.4
2023-04-25T07:55:34.161Z,992.4
2023-04-25T07:56:53.718Z,992.5
2023-04-25T07:59:42.832Z,992.5
2023-04-25T08:00:49.973Z,992.6
2023-04-25T08:01:51.293Z,992.6
2023-04-25T08:02:55.609Z,992.5
2023-04-25T08:03:57.598Z,992.6
2023-04-25T08:05:02.353Z,992.6
2023-04-25T08:06:08.936Z,992.6
2023-04-25T08:07:16.742Z,992.6
2023-04-25T08:08:35.772Z,992.6
2023-04-25T08:10:48.076Z,992.6
2023-04-25T08:11:57.418Z,992.7
2023-04-25T08:13:03.748Z,992.7
2023-04-25T08:14:12.037Z,992.7
2023-04-25T08:15:17.597Z,992.7
2023-04-25T08:17:52.317Z,992.8
2023-04-25T08:18:56.454Z,992.8
2023-04-25T08:19:57.663Z,992.8
2023-04-25T08:21:06.323Z,992.8
2023-04-25T08:22:15.461Z,992.8
2023-04-25T08:23:28.217Z,992.8
2023-04-25T08:24:32.325Z,992.8
2023-04-25T08:25:33.528Z,992.8
2023-04-25T08:26:35.657Z,992.7
2023-04-25T08:27:39.479Z,992.8
2023-04-25T08:28:43.568Z,992.8
2023-04-25T08:31:04.624Z,992.8
2023-04-25T08:32:05.799Z,992.9
2023-04-25T08:33:07.043Z,992.9
2023-04-25T08:34:08.372Z,992.9
2023-04-25T08:35:09.532Z,993
2023-04-25T08:36:10.674Z,993
2023-04-25T08:37:11.844Z,993.1
2023-04-25T08:38:13.004Z,993.1
2023-04-25T08:39:14.221Z,993.1
2023-04-25T08:40:15.362Z,993.1
2023-04-25T08:41:16.521Z,993.2
2023-04-25T08:42:17.687Z,993.2
2023-04-25T08:43:18.865Z,993.2
2023-04-25T08:44:20.027Z,993.2
2023-04-25T08:45:21.206Z,993.2
2023-04-25T08:46:22.408Z,993.2
2023-04-25T08:47:23.631Z,993.2
2023-04-25T08:48:24.875Z,993.2
2023-04-25T08:49:26.409Z,993.2
2023-04-25T08:50:27.586Z,993.2
2023-04-25T08:51:28.761Z,993.2
2023-04-25T08:52:29.922Z,993.2
2023-04-25T08:53:31.588Z,993.1
2023-04-25T08:54:37.373Z,993.1
2023-04-25T08:55:42.418Z,993.1
2023-04-25T08:56:43.571Z,993.1
2023-04-25T08:57:44.754Z,993.1
2023-04-25T08:58:45.900Z,993.2
2023-04-25T08:59:47.335Z,993.2
2023-04-25T09:00:48.561Z,993.2
2023-04-25T09:01:49.734Z,993.2
2023-04-25T09:02:51.405Z,993.3
2023-04-25T09:03:53.149Z,993.3
2023-04-25T09:04:54.717Z,993.3
2023-04-25T09:05:55.848Z,993.3
2023-04-25T09:06:57.217Z,993.3
2023-04-25T09:07:58.427Z,993.3
2023-04-25T09:08:59.595Z,993.3
2023-04-25T09:10:00.761Z,993.3
2023-04-25T09:11:01.927Z,993.4
2023-04-25T09:12:03.089Z,993.4
2023-04-25T09:13:04.267Z,993.4
2023-04-25T09:14:05.417Z,993.4
2023-04-25T09:15:06.591Z,993.4
2023-04-25T09:16:07.761Z,993.4
2023-04-25T09:17:09.089Z,993.5
2023-04-25T09:18:10.551Z,993.4
2023-04-25T09:19:11.780Z,993.4
2023-04-25T09:20:13.029Z,993.4
2023-04-25T09:21:15.520Z,993.5
2023-04-25T09:22:16.762Z,993.5
2023-04-25T09:23:17.948Z,993.5
2023-04-25T09:24:19.090Z,993.5
2023-04-25T09:25:20.255Z,993.6
2023-04-25T09:26:21.424Z,993.6
2023-04-25T09:27:22.580Z,993.6
2023-04-25T09:28:23.764Z,993.6
2023-04-25T09:29:24.917Z,993.6
2023-04-25T09:30:26.085Z,993.6
2023-04-25T09:31:27.340Z,993.7
2023-04-25T09:32:29.070Z,993.7
2023-04-25T09:33:30.484Z,993.7
2023-04-25T09:34:31.681Z,993.6
2023-04-25T09:35:33.080Z,993.6
2023-04-25T09:36:34.253Z,993.7
2023-04-25T09:37:35.689Z,993.7
2023-04-25T09:38:36.924Z,993.7
2023-04-25T09:39:38.094Z,993.6
2023-04-25T09:40:39.260Z,993.7
2023-04-25T09:41:40.424Z,993.7
2023-04-25T09:42:41.590Z,993.6
2023-04-25T09:43:42.805Z,993.6
2023-04-25T09:44:43.999Z,993.6
2023-04-25T09:45:45.323Z,993.7
2023-04-25T09:46:46.830Z,993.7
2023-04-25T09:47:48.120Z,993.7
2023-04-25T09:48:49.276Z,993.7
2023-04-25T09:49:50.437Z,993.7
2023-04-25T09:50:51.923Z,993.7
2023-04-25T09:51:53.065Z,993.7
2023-04-25T09:52:54.225Z,993.7
2023-04-25T09:53:55.394Z,993.8
2023-04-25T09:54:56.588Z,993.7
2023-04-25T09:55:57.743Z,993.8
2023-04-25T09:56:58.893Z,993.8
2023-04-25T09:58:00.076Z,993.8
2023-04-25T09:59:01.223Z,993.8
2023-04-25T10:00:02.390Z,993.8
2023-04-25T10:01:03.709Z,993.8
2023-04-25T10:02:05.031Z,993.8
2023-04-25T10:03:06.381Z,993.8
2023-04-25T10:04:08.168Z,993.9
2023-04-25T10:05:09.892Z,993.8
2023-04-25T10:06:11.505Z,993.8
2023-04-25T10:07:12.730Z,993.9
2023-04-25T10:08:13.901Z,993.9
2023-04-25T10:09:15.068Z,993.9
2023-04-25T10:10:16.327Z,993.9
2023-04-25T10:11:17.494Z,994
2023-04-25T10:12:18.652Z,993.9
2023-04-25T10:13:19.815Z,994
2023-04-25T10:14:20.977Z,994
2023-04-25T10:15:22.156Z,994
2023-04-25T10:16:23.456Z,994
2023-04-25T10:17:24.850Z,994
2023-04-25T10:18:26.007Z,994
2023-04-25T10:19:27.164Z,994
2023-04-25T10:20:28.335Z,994
2023-04-25T10:21:29.677Z,994
2023-04-25T10:22:30.800Z,994
2023-04-25T10:23:31.967Z,994
2023-04-25T10:24:33.138Z,994.1
2023-04-25T10:25:34.301Z,994
2023-04-25T10:26:35.473Z,994
2023-04-25T10:27:36.686Z,994
2023-04-25T10:28:37.823Z,994.1
2023-04-25T10:29:39.414Z,994
2023-04-25T10:30:40.577Z,994
2023-04-25T10:31:41.995Z,994.1
2023-04-25T10:32:43.397Z,994.1
2023-04-25T10:33:44.562Z,994
2023-04-25T10:34:45.735Z,994
2023-04-25T10:35:46.901Z,994
2023-04-25T10:36:48.153Z,994
2023-04-25T10:37:49.288Z,994
2023-04-25T10:38:50.450Z,994.1
2023-04-25T10:39:51.615Z,994.1
2023-04-25T10:40:52.780Z,994
2023-04-25T10:41:53.954Z,994.1
2023-04-25T10:42:55.117Z,994.1
2023-04-25T10:43:56.274Z,994
2023-04-25T10:44:57.479Z,994
2023-04-25T10:45:58.606Z,994
2023-04-25T10:46:59.807Z,993.9
2023-04-25T10:48:01.225Z,994
2023-04-25T10:49:02.426Z,994
2023-04-25T10:50:03.593Z,993.9
2023-04-25T10:51:04.763Z,994
2023-04-25T10:52:06.012Z,994
2023-04-25T10:53:07.135Z,994
2023-04-25T10:54:08.305Z,994
2023-04-25T10:55:09.476Z,994
2023-04-25T10:56:12.574Z,993.9
2023-04-25T10:57:15.476Z,993.9
2023-04-25T10:58:16.673Z,993.9
2023-04-25T10:59:17.817Z,993.9
2023-04-25T11:00:19.027Z,994
2023-04-25T11:01:20.683Z,994
2023-04-25T11:02:22.022Z,994
2023-04-25T11:03:23.994Z,994
2023-04-25T11:04:26.485Z,994
2023-04-25T11:05:28.476Z,994.1
2023-04-25T11:06:29.650Z,994.1
2023-04-25T11:07:30.844Z,994.1
2023-04-25T11:08:31.974Z,994.1
2023-04-25T11:09:33.142Z,994.1
2023-04-25T11:10:34.416Z,994.1
2023-04-25T11:11:35.619Z,994.1
2023-04-25T11:12:36.791Z,994.1
2023-04-25T11:13:37.962Z,994.1
2023-04-25T11:15:40.082Z,994.1
2023-04-25T11:16:41.254Z,994.1
2023-04-25T11:17:42.719Z,994.2
2023-04-25T11:18:43.918Z,994.2
2023-04-25T11:19:45.359Z,994.2
2023-04-25T11:20:46.533Z,994.2
2023-04-25T11:21:47.695Z,994.2
2023-04-25T11:22:52.824Z,994.2
2023-04-25T11:23:54.617Z,994.2
2023-04-25T11:24:55.912Z,994.2
2023-04-25T11:25:57.084Z,994.2
2023-04-25T11:26:58.244Z,994.2
2023-04-25T11:27:59.419Z,994.2
2023-04-25T11:29:02.745Z,994.2
2023-04-25T11:30:03.896Z,994.3
2023-04-25T11:31:05.568Z,994.3
2023-04-25T11:32:06.774Z,994.2
2023-04-25T11:33:08.072Z,994.2
2023-04-25T11:34:09.296Z,994.2
2023-04-25T11:35:10.460Z,994.1
2023-04-25T11:36:11.631Z,994.1
2023-04-25T11:37:12.790Z,994.1
2023-04-25T11:38:14.177Z,994.1
2023-04-25T11:39:15.310Z,994.1
2023-04-25T11:40:16.504Z,994.1
2023-04-25T11:41:17.656Z,994.1
2023-04-25T11:42:18.806Z,994.1
2023-04-25T11:43:22.093Z,994.1
2023-04-25T11:44:23.248Z,994.1
2023-04-25T11:45:24.447Z,994.1
2023-04-25T11:46:25.649Z,994
2023-04-25T11:47:26.850Z,994.1
2023-04-25T11:48:28.004Z,994.1
2023-04-25T11:49:29.280Z,994.2
2023-04-25T11:50:31.273Z,994.2
2023-04-25T11:51:32.425Z,994.2
2023-04-25T11:52:33.633Z,994.2
2023-04-25T11:53:34.819Z,994.2
2023-04-25T11:54:35.964Z,994.3
2023-04-25T11:55:37.155Z,994.2
2023-04-25T11:56:38.323Z,994.2
2023-04-25T11:57:39.510Z,994.2
2023-04-25T11:58:40.654Z,994.2
2023-04-25T11:59:41.812Z,994.3
2023-04-25T12:00:51.072Z,994.3
2023-04-25T12:04:01.128Z,994.3
2023-04-25T12:05:31.806Z,994.2
2023-04-25T12:06:38.548Z,994.3
2023-04-25T12:07:44.087Z,994.3
2023-04-25T12:10:41.255Z,994.2
2023-04-25T12:11:45.617Z,994.2
2023-04-25T12:13:02.014Z,994.2
2023-04-25T12:14:08.231Z,994.2
2023-04-25T12:15:19.688Z,994.3
2023-04-25T12:17:03.552Z,994.2
2023-04-25T12:18:18.935Z,994.3
2023-04-25T12:19:49.553Z,994.2
2023-04-25T12:22:04.811Z,994.2
2023-04-25T13:01:44.547Z,994.3
2023-04-25T13:02:56.991Z,994.7
2023-04-25T13:04:23.296Z,994.7
2023-04-25T13:06:40.367Z,994.7
2023-04-25T13:08:02.293Z,994.7
2023-04-25T13:10:42.542Z,994.7
2023-04-25T13:13:36.138Z,994.7
2023-04-25T13:15:30.863Z,994.7
2023-04-25T13:17:06.653Z,994.8
2023-04-25T13:18:23.151Z,994.8
2023-04-25T13:22:06.839Z,994.8
2023-04-25T14:03:07.148Z,995.1
2023-04-25T14:06:01.362Z,995.1
2023-04-25T14:11:11.200Z,995.1
2023-04-25T14:12:24.622Z,995.1
2023-04-25T14:13:36.492Z,995.2
2023-04-25T14:14:46.899Z,995.2
2023-04-25T14:16:19.438Z,995.2
2023-04-25T14:17:38.110Z,995.2
2023-04-25T14:21:10.162Z,995.2
2023-04-25T14:24:54.067Z,995.3
2023-04-25T14:26:09.052Z,995.3
2023-04-25T14:27:45.723Z,995.2
2023-04-25T14:29:36.713Z,995.3
2023-04-25T14:30:42.948Z,995.2
2023-04-25T14:31:50.032Z,995.2
2023-04-25T14:34:46.518Z,995.2
2023-04-25T14:37:36.830Z,995.2
2023-04-25T14:40:05.054Z,995.2
2023-04-25T14:49:00.079Z,995.2
2023-04-25T14:52:41.561Z,995.2
2023-04-25T14:54:05.716Z,995.2
2023-04-25T14:56:43.976Z,995.2
2023-04-25T14:58:00.406Z,995.3
2023-04-25T15:01:01.098Z,995.3
2023-04-25T15:03:34.124Z,995.3
2023-04-25T15:06:59.058Z,995.3
2023-04-25T15:09:24.061Z,995.3
2023-04-25T15:10:57.509Z,995.3
2023-04-25T15:12:07.222Z,995.3
2023-04-25T15:13:18.362Z,995.3
2023-04-25T15:15:32.651Z,995.3
2023-04-25T15:18:08.605Z,995.4
2023-04-25T15:19:49.128Z,995.4
2023-04-25T15:21:00.270Z,995.4
2023-04-25T15:23:42.607Z,995.5
2023-04-25T15:25:46.515Z,995.5
2023-04-25T15:28:30.200Z,995.5
2023-04-25T15:30:36.926Z,995.5
2023-04-25T16:10:19.150Z,995.6
2023-04-25T16:11:20.295Z,995.7
2023-04-25T16:12:21.496Z,995.8
2023-04-25T16:13:22.662Z,995.8
2023-04-25T16:14:23.828Z,995.8
2023-04-25T16:15:24.989Z,995.8
2023-04-25T16:16:26.180Z,995.8
2023-04-25T16:17:27.428Z,995.8
2023-04-25T16:18:28.586Z,995.9
2023-04-25T16:19:29.750Z,995.9
2023-04-25T16:20:30.938Z,995.9
2023-04-25T16:21:32.106Z,995.9
2023-04-25T16:22:33.272Z,995.9
2023-04-25T16:23:34.446Z,995.9
2023-04-25T16:24:35.604Z,995.9
2023-04-25T16:25:36.799Z,995.9
2023-04-25T16:26:37.952Z,995.9
2023-04-25T16:27:39.119Z,995.8
2023-04-25T16:28:40.705Z,995.8
2023-04-25T16:29:41.871Z,995.8
2023-04-25T16:30:43.042Z,995.8
2023-04-25T16:31:44.328Z,995.8
2023-04-25T16:32:46.163Z,995.8
2023-04-25T16:33:47.408Z,995.9
2023-04-25T16:34:48.579Z,995.9
2023-04-25T16:35:49.773Z,995.9
2023-04-25T16:36:50.907Z,995.9
2023-04-25T16:37:52.535Z,995.9
2023-04-25T16:38:54.414Z,995.9
2023-04-25T16:39:55.794Z,996
2023-04-25T16:40:57.049Z,996
2023-04-25T16:41:58.213Z,996
2023-04-25T16:42:59.385Z,996
2023-04-25T16:44:00.556Z,996
2023-04-25T16:45:01.719Z,996
2023-04-25T16:46:02.887Z,996
2023-04-25T16:47:04.140Z,996.1
2023-04-25T16:48:05.464Z,996
2023-04-25T16:49:06.661Z,996
2023-04-25T16:50:07.829Z,996
2023-04-25T16:51:09.004Z,996.1
2023-04-25T16:52:10.162Z,996.1
2023-04-25T16:53:11.328Z,996.1